sensor_id;sensor_type;location;lat;lon;timestamp;P1;durP1;ratioP1;P2;durP2;ratioP2
71730;SDS011;65964;43.496;3.710;2023-01-08T00:01:52;32.47;;;12.93;;
71730;SDS011;65964;43.496;3.710;2023-01-08T00:04:18;22.52;;;11.35;;
71730;SDS011;65964;43.496;3.710;2023-01-08T00:06:44;29.30;;;11.85;;
71730;SDS011;65964;43.496;3.710;2023-01-08T00:09:10;21.98;;;9.68;;
71730;SDS011;65964;43.496;3.710;2023-01-08T00:11:36;27.15;;;9.55;;
71730;SDS011;65964;43.496;3.710;2023-01-08T00:14:03;23.65;;;7.97;;
71730;SDS011;65964;43.496;3.710;2023-01-08T00:16:29;30.08;;;9.30;;
71730;SDS011;65964;43.496;3.710;2023-01-08T00:18:55;24.13;;;8.63;;
71730;SDS011;65964;43.496;3.710;2023-01-08T00:21:21;28.73;;;8.60;;
71730;SDS011;65964;43.496;3.710;2023-01-08T00:23:47;21.25;;;7.88;;
71730;SDS011;65964;43.496;3.710;2023-01-08T00:26:13;21.30;;;7.80;;
71730;SDS011;65964;43.496;3.710;2023-01-08T00:28:39;23.55;;;8.05;;
71730;SDS011;65964;43.496;3.710;2023-01-08T00:31:06;22.55;;;7.95;;
71730;SDS011;65964;43.496;3.710;2023-01-08T00:33:33;21.95;;;7.65;;
71730;SDS011;65964;43.496;3.710;2023-01-08T00:36:00;21.90;;;8.90;;
71730;SDS011;65964;43.496;3.710;2023-01-08T00:38:26;21.90;;;8.23;;
71730;SDS011;65964;43.496;3.710;2023-01-08T00:40:52;25.23;;;8.77;;
71730;SDS011;65964;43.496;3.710;2023-01-08T00:43:18;22.90;;;7.95;;
71730;SDS011;65964;43.496;3.710;2023-01-08T00:45:45;20.75;;;8.10;;
71730;SDS011;65964;43.496;3.710;2023-01-08T00:48:11;24.23;;;8.38;;
71730;SDS011;65964;43.496;3.710;2023-01-08T00:50:37;21.10;;;8.07;;
71730;SDS011;65964;43.496;3.710;2023-01-08T00:53:03;17.88;;;7.47;;
71730;SDS011;65964;43.496;3.710;2023-01-08T00:55:29;26.50;;;8.10;;
71730;SDS011;65964;43.496;3.710;2023-01-08T00:57:55;23.42;;;7.70;;
71730;SDS011;65964;43.496;3.710;2023-01-08T01:00:22;19.85;;;7.55;;
71730;SDS011;65964;43.496;3.710;2023-01-08T01:02:48;17.33;;;7.85;;
71730;SDS011;65964;43.496;3.710;2023-01-08T01:05:15;22.73;;;8.57;;
71730;SDS011;65964;43.496;3.710;2023-01-08T01:07:42;22.83;;;9.15;;
71730;SDS011;65964;43.496;3.710;2023-01-08T01:10:09;23.20;;;8.00;;
71730;SDS011;65964;43.496;3.710;2023-01-08T01:12:36;21.35;;;7.45;;
71730;SDS011;65964;43.496;3.710;2023-01-08T01:15:03;23.95;;;9.10;;
71730;SDS011;65964;43.496;3.710;2023-01-08T01:17:29;20.83;;;9.57;;
71730;SDS011;65964;43.496;3.710;2023-01-08T01:19:55;15.65;;;7.40;;
71730;SDS011;65964;43.496;3.710;2023-01-08T01:22:21;22.13;;;7.72;;
71730;SDS011;65964;43.496;3.710;2023-01-08T01:24:47;20.33;;;7.90;;
71730;SDS011;65964;43.496;3.710;2023-01-08T01:27:13;21.27;;;7.88;;
71730;SDS011;65964;43.496;3.710;2023-01-08T01:29:39;25.00;;;7.90;;
71730;SDS011;65964;43.496;3.710;2023-01-08T01:32:05;21.55;;;9.88;;
71730;SDS011;65964;43.496;3.710;2023-01-08T01:34:31;21.05;;;8.27;;
71730;SDS011;65964;43.496;3.710;2023-01-08T01:36:57;21.17;;;7.60;;
71730;SDS011;65964;43.496;3.710;2023-01-08T01:39:23;22.42;;;7.93;;
71730;SDS011;65964;43.496;3.710;2023-01-08T01:41:49;22.52;;;8.32;;
71730;SDS011;65964;43.496;3.710;2023-01-08T01:47:08;18.40;;;7.45;;
71730;SDS011;65964;43.496;3.710;2023-01-08T01:49:35;24.55;;;7.40;;
71730;SDS011;65964;43.496;3.710;2023-01-08T01:52:03;17.38;;;7.10;;
71730;SDS011;65964;43.496;3.710;2023-01-08T01:54:30;20.73;;;7.57;;
71730;SDS011;65964;43.496;3.710;2023-01-08T01:56:56;24.13;;;7.53;;
71730;SDS011;65964;43.496;3.710;2023-01-08T01:59:23;21.48;;;7.78;;
71730;SDS011;65964;43.496;3.710;2023-01-08T02:01:49;23.00;;;8.20;;
71730;SDS011;65964;43.496;3.710;2023-01-08T02:04:15;19.58;;;8.40;;
71730;SDS011;65964;43.496;3.710;2023-01-08T02:06:49;22.88;;;9.80;;
71730;SDS011;65964;43.496;3.710;2023-01-08T02:17:25;20.20;;;7.40;;
71730;SDS011;65964;43.496;3.710;2023-01-08T02:19:56;19.42;;;7.00;;
71730;SDS011;65964;43.496;3.710;2023-01-08T02:22:49;19.15;;;7.32;;
71730;SDS011;65964;43.496;3.710;2023-01-08T02:27:47;21.58;;;7.60;;
71730;SDS011;65964;43.496;3.710;2023-01-08T02:30:14;16.70;;;7.25;;
71730;SDS011;65964;43.496;3.710;2023-01-08T02:32:40;16.13;;;7.65;;
71730;SDS011;65964;43.496;3.710;2023-01-08T02:35:07;23.33;;;7.68;;
71730;SDS011;65964;43.496;3.710;2023-01-08T02:37:34;15.23;;;7.05;;
71730;SDS011;65964;43.496;3.710;2023-01-08T02:42:45;17.98;;;6.88;;
71730;SDS011;65964;43.496;3.710;2023-01-08T02:45:26;18.40;;;6.80;;
71730;SDS011;65964;43.496;3.710;2023-01-08T02:47:53;18.15;;;7.07;;
71730;SDS011;65964;43.496;3.710;2023-01-08T02:53:03;20.83;;;7.03;;
71730;SDS011;65964;43.496;3.710;2023-01-08T02:55:32;20.98;;;7.60;;
71730;SDS011;65964;43.496;3.710;2023-01-08T02:57:59;26.23;;;7.55;;
71730;SDS011;65964;43.496;3.710;2023-01-08T03:00:26;21.60;;;7.32;;
71730;SDS011;65964;43.496;3.710;2023-01-08T03:02:55;17.42;;;7.18;;
71730;SDS011;65964;43.496;3.710;2023-01-08T03:05:26;20.63;;;7.57;;
71730;SDS011;65964;43.496;3.710;2023-01-08T03:07:53;24.55;;;7.13;;
71730;SDS011;65964;43.496;3.710;2023-01-08T03:10:20;23.00;;;7.47;;
71730;SDS011;65964;43.496;3.710;2023-01-08T03:12:55;21.25;;;8.80;;
71730;SDS011;65964;43.496;3.710;2023-01-08T03:15:27;25.27;;;9.43;;
71730;SDS011;65964;43.496;3.710;2023-01-08T03:17:56;23.42;;;11.02;;
71730;SDS011;65964;43.496;3.710;2023-01-08T03:20:24;20.85;;;9.57;;
71730;SDS011;65964;43.496;3.710;2023-01-08T03:22:51;20.40;;;9.70;;
71730;SDS011;65964;43.496;3.710;2023-01-08T03:25:18;16.20;;;6.78;;
71730;SDS011;65964;43.496;3.710;2023-01-08T03:27:46;21.42;;;7.05;;
71730;SDS011;65964;43.496;3.710;2023-01-08T03:30:13;23.23;;;7.63;;
71730;SDS011;65964;43.496;3.710;2023-01-08T03:32:41;20.15;;;7.93;;
71730;SDS011;65964;43.496;3.710;2023-01-08T03:35:08;18.15;;;6.70;;
71730;SDS011;65964;43.496;3.710;2023-01-08T03:37:37;19.15;;;7.05;;
71730;SDS011;65964;43.496;3.710;2023-01-08T03:40:04;18.10;;;6.95;;
71730;SDS011;65964;43.496;3.710;2023-01-08T03:42:32;20.23;;;7.85;;
71730;SDS011;65964;43.496;3.710;2023-01-08T03:44:59;16.77;;;7.93;;
71730;SDS011;65964;43.496;3.710;2023-01-08T03:47:26;24.17;;;7.13;;
71730;SDS011;65964;43.496;3.710;2023-01-08T03:49:52;20.08;;;6.65;;
71730;SDS011;65964;43.496;3.710;2023-01-08T03:52:20;17.95;;;6.75;;
71730;SDS011;65964;43.496;3.710;2023-01-08T03:54:46;22.15;;;7.00;;
71730;SDS011;65964;43.496;3.710;2023-01-08T03:57:12;17.52;;;6.72;;
71730;SDS011;65964;43.496;3.710;2023-01-08T03:59:38;16.67;;;6.22;;
71730;SDS011;65964;43.496;3.710;2023-01-08T04:02:04;19.67;;;6.60;;
71730;SDS011;65964;43.496;3.710;2023-01-08T04:04:30;20.10;;;7.40;;
71730;SDS011;65964;43.496;3.710;2023-01-08T04:06:56;23.17;;;9.02;;
71730;SDS011;65964;43.496;3.710;2023-01-08T04:09:22;19.98;;;7.40;;
71730;SDS011;65964;43.496;3.710;2023-01-08T04:11:48;18.73;;;6.85;;
71730;SDS011;65964;43.496;3.710;2023-01-08T04:14:14;20.13;;;6.78;;
71730;SDS011;65964;43.496;3.710;2023-01-08T04:16:40;22.77;;;6.50;;
71730;SDS011;65964;43.496;3.710;2023-01-08T04:19:06;25.75;;;6.88;;
71730;SDS011;65964;43.496;3.710;2023-01-08T04:21:32;23.13;;;7.53;;
71730;SDS011;65964;43.496;3.710;2023-01-08T04:23:58;17.08;;;6.30;;
71730;SDS011;65964;43.496;3.710;2023-01-08T04:26:24;19.73;;;6.40;;
71730;SDS011;65964;43.496;3.710;2023-01-08T04:28:50;19.73;;;7.18;;
71730;SDS011;65964;43.496;3.710;2023-01-08T04:31:16;18.65;;;6.38;;
71730;SDS011;65964;43.496;3.710;2023-01-08T04:33:43;23.30;;;7.28;;
71730;SDS011;65964;43.496;3.710;2023-01-08T04:36:09;17.42;;;6.47;;
71730;SDS011;65964;43.496;3.710;2023-01-08T04:38:35;20.38;;;6.30;;
71730;SDS011;65964;43.496;3.710;2023-01-08T04:41:01;20.80;;;7.20;;
71730;SDS011;65964;43.496;3.710;2023-01-08T04:43:28;21.95;;;6.68;;
71730;SDS011;65964;43.496;3.710;2023-01-08T04:45:58;17.65;;;6.38;;
71730;SDS011;65964;43.496;3.710;2023-01-08T04:48:25;18.83;;;6.82;;
71730;SDS011;65964;43.496;3.710;2023-01-08T04:50:51;22.02;;;6.70;;
71730;SDS011;65964;43.496;3.710;2023-01-08T04:53:17;22.85;;;7.88;;
71730;SDS011;65964;43.496;3.710;2023-01-08T04:55:43;21.80;;;6.80;;
71730;SDS011;65964;43.496;3.710;2023-01-08T04:58:09;23.15;;;7.20;;
71730;SDS011;65964;43.496;3.710;2023-01-08T05:00:35;18.90;;;7.05;;
71730;SDS011;65964;43.496;3.710;2023-01-08T05:03:01;22.13;;;6.78;;
71730;SDS011;65964;43.496;3.710;2023-01-08T05:05:27;26.33;;;9.68;;
71730;SDS011;65964;43.496;3.710;2023-01-08T05:07:53;79.78;;;36.58;;
71730;SDS011;65964;43.496;3.710;2023-01-08T05:10:19;65.70;;;28.55;;
71730;SDS011;65964;43.496;3.710;2023-01-08T05:12:45;37.35;;;18.65;;
71730;SDS011;65964;43.496;3.710;2023-01-08T05:15:11;28.20;;;11.90;;
71730;SDS011;65964;43.496;3.710;2023-01-08T05:17:37;28.55;;;9.57;;
71730;SDS011;65964;43.496;3.710;2023-01-08T05:20:03;22.75;;;8.38;;
71730;SDS011;65964;43.496;3.710;2023-01-08T05:22:29;22.27;;;7.93;;
71730;SDS011;65964;43.496;3.710;2023-01-08T05:24:55;20.90;;;8.30;;
71730;SDS011;65964;43.496;3.710;2023-01-08T05:27:21;26.40;;;7.78;;
71730;SDS011;65964;43.496;3.710;2023-01-08T05:29:47;19.88;;;7.57;;
71730;SDS011;65964;43.496;3.710;2023-01-08T05:32:15;23.77;;;7.22;;
71730;SDS011;65964;43.496;3.710;2023-01-08T05:34:42;26.00;;;7.07;;
71730;SDS011;65964;43.496;3.710;2023-01-08T05:37:08;19.85;;;6.70;;
71730;SDS011;65964;43.496;3.710;2023-01-08T05:39:35;22.20;;;6.57;;
71730;SDS011;65964;43.496;3.710;2023-01-08T05:42:01;21.60;;;6.95;;
71730;SDS011;65964;43.496;3.710;2023-01-08T05:44:27;22.40;;;7.50;;
71730;SDS011;65964;43.496;3.710;2023-01-08T05:46:53;22.17;;;7.55;;
71730;SDS011;65964;43.496;3.710;2023-01-08T05:49:20;22.83;;;7.60;;
71730;SDS011;65964;43.496;3.710;2023-01-08T05:51:47;21.40;;;7.93;;
71730;SDS011;65964;43.496;3.710;2023-01-08T05:54:13;19.80;;;7.57;;
71730;SDS011;65964;43.496;3.710;2023-01-08T05:56:40;23.23;;;8.10;;
71730;SDS011;65964;43.496;3.710;2023-01-08T05:59:09;22.90;;;7.93;;
71730;SDS011;65964;43.496;3.710;2023-01-08T06:01:36;22.02;;;8.35;;
71730;SDS011;65964;43.496;3.710;2023-01-08T06:04:02;23.77;;;8.43;;
71730;SDS011;65964;43.496;3.710;2023-01-08T06:06:28;26.42;;;8.40;;
71730;SDS011;65964;43.496;3.710;2023-01-08T06:08:54;19.60;;;7.55;;
71730;SDS011;65964;43.496;3.710;2023-01-08T06:11:20;26.50;;;7.90;;
71730;SDS011;65964;43.496;3.710;2023-01-08T06:13:46;19.63;;;7.22;;
71730;SDS011;65964;43.496;3.710;2023-01-08T06:16:12;21.25;;;7.82;;
71730;SDS011;65964;43.496;3.710;2023-01-08T06:18:38;19.85;;;7.18;;
71730;SDS011;65964;43.496;3.710;2023-01-08T06:21:04;20.90;;;7.78;;
71730;SDS011;65964;43.496;3.710;2023-01-08T06:23:31;21.63;;;7.35;;
71730;SDS011;65964;43.496;3.710;2023-01-08T06:25:57;21.55;;;6.70;;
71730;SDS011;65964;43.496;3.710;2023-01-08T06:28:24;20.35;;;7.05;;
71730;SDS011;65964;43.496;3.710;2023-01-08T06:30:50;20.70;;;7.70;;
71730;SDS011;65964;43.496;3.710;2023-01-08T06:33:17;20.55;;;7.55;;
71730;SDS011;65964;43.496;3.710;2023-01-08T06:35:43;19.67;;;6.60;;
71730;SDS011;65964;43.496;3.710;2023-01-08T06:38:09;19.35;;;6.85;;
71730;SDS011;65964;43.496;3.710;2023-01-08T06:40:35;19.20;;;7.15;;
71730;SDS011;65964;43.496;3.710;2023-01-08T06:43:02;18.77;;;7.05;;
71730;SDS011;65964;43.496;3.710;2023-01-08T06:45:28;24.48;;;6.63;;
71730;SDS011;65964;43.496;3.710;2023-01-08T06:47:54;21.98;;;7.05;;
71730;SDS011;65964;43.496;3.710;2023-01-08T06:50:20;20.20;;;6.95;;
71730;SDS011;65964;43.496;3.710;2023-01-08T06:52:53;15.90;;;6.68;;
71730;SDS011;65964;43.496;3.710;2023-01-08T06:55:20;18.80;;;7.32;;
71730;SDS011;65964;43.496;3.710;2023-01-08T06:57:46;25.48;;;7.50;;
71730;SDS011;65964;43.496;3.710;2023-01-08T07:00:12;18.25;;;6.28;;
71730;SDS011;65964;43.496;3.710;2023-01-08T07:02:38;17.48;;;6.63;;
71730;SDS011;65964;43.496;3.710;2023-01-08T07:05:04;17.50;;;6.82;;
71730;SDS011;65964;43.496;3.710;2023-01-08T07:07:31;19.05;;;7.43;;
71730;SDS011;65964;43.496;3.710;2023-01-08T07:09:57;19.00;;;7.28;;
71730;SDS011;65964;43.496;3.710;2023-01-08T07:12:23;23.27;;;8.77;;
71730;SDS011;65964;43.496;3.710;2023-01-08T07:14:49;24.30;;;8.38;;
71730;SDS011;65964;43.496;3.710;2023-01-08T07:17:15;21.27;;;8.32;;
71730;SDS011;65964;43.496;3.710;2023-01-08T07:19:41;27.48;;;8.50;;
71730;SDS011;65964;43.496;3.710;2023-01-08T07:22:07;28.63;;;8.10;;
71730;SDS011;65964;43.496;3.710;2023-01-08T07:24:33;22.17;;;7.85;;
71730;SDS011;65964;43.496;3.710;2023-01-08T07:27:00;21.38;;;7.30;;
71730;SDS011;65964;43.496;3.710;2023-01-08T07:29:26;16.50;;;7.22;;
71730;SDS011;65964;43.496;3.710;2023-01-08T07:31:52;19.63;;;7.10;;
71730;SDS011;65964;43.496;3.710;2023-01-08T07:34:18;17.25;;;6.85;;
71730;SDS011;65964;43.496;3.710;2023-01-08T07:36:44;17.52;;;7.05;;
71730;SDS011;65964;43.496;3.710;2023-01-08T07:39:10;22.83;;;6.65;;
71730;SDS011;65964;43.496;3.710;2023-01-08T07:41:36;21.35;;;7.35;;
71730;SDS011;65964;43.496;3.710;2023-01-08T07:44:03;17.65;;;6.72;;
71730;SDS011;65964;43.496;3.710;2023-01-08T07:46:29;21.63;;;7.15;;
71730;SDS011;65964;43.496;3.710;2023-01-08T07:48:55;21.17;;;7.03;;
71730;SDS011;65964;43.496;3.710;2023-01-08T07:51:21;27.48;;;7.15;;
71730;SDS011;65964;43.496;3.710;2023-01-08T07:53:47;19.35;;;7.22;;
71730;SDS011;65964;43.496;3.710;2023-01-08T07:56:15;16.48;;;7.47;;
71730;SDS011;65964;43.496;3.710;2023-01-08T07:58:41;20.35;;;6.78;;
71730;SDS011;65964;43.496;3.710;2023-01-08T08:01:08;17.95;;;6.63;;
71730;SDS011;65964;43.496;3.710;2023-01-08T08:03:35;18.05;;;6.75;;
71730;SDS011;65964;43.496;3.710;2023-01-08T08:06:01;24.40;;;6.85;;
71730;SDS011;65964;43.496;3.710;2023-01-08T08:08:27;18.70;;;7.68;;
71730;SDS011;65964;43.496;3.710;2023-01-08T08:10:53;20.58;;;7.13;;
71730;SDS011;65964;43.496;3.710;2023-01-08T08:13:19;20.17;;;6.45;;
71730;SDS011;65964;43.496;3.710;2023-01-08T08:15:45;18.73;;;6.47;;
71730;SDS011;65964;43.496;3.710;2023-01-08T08:18:12;27.95;;;8.60;;
71730;SDS011;65964;43.496;3.710;2023-01-08T08:20:38;30.25;;;11.52;;
71730;SDS011;65964;43.496;3.710;2023-01-08T08:23:05;35.35;;;15.00;;
71730;SDS011;65964;43.496;3.710;2023-01-08T08:25:32;52.72;;;28.73;;
71730;SDS011;65964;43.496;3.710;2023-01-08T08:27:58;33.08;;;17.40;;
71730;SDS011;65964;43.496;3.710;2023-01-08T08:30:25;29.77;;;12.30;;
71730;SDS011;65964;43.496;3.710;2023-01-08T08:32:52;27.55;;;11.20;;
71730;SDS011;65964;43.496;3.710;2023-01-08T08:35:18;24.08;;;10.82;;
71730;SDS011;65964;43.496;3.710;2023-01-08T08:37:44;23.52;;;10.85;;
71730;SDS011;65964;43.496;3.710;2023-01-08T08:40:10;26.65;;;10.43;;
71730;SDS011;65964;43.496;3.710;2023-01-08T08:42:36;22.42;;;9.70;;
71730;SDS011;65964;43.496;3.710;2023-01-08T08:45:02;26.35;;;10.10;;
71730;SDS011;65964;43.496;3.710;2023-01-08T08:47:28;32.35;;;10.05;;
71730;SDS011;65964;43.496;3.710;2023-01-08T08:49:54;27.20;;;9.82;;
71730;SDS011;65964;43.496;3.710;2023-01-08T08:52:20;30.65;;;9.93;;
71730;SDS011;65964;43.496;3.710;2023-01-08T08:54:46;23.35;;;9.20;;
71730;SDS011;65964;43.496;3.710;2023-01-08T08:57:12;19.48;;;8.75;;
71730;SDS011;65964;43.496;3.710;2023-01-08T08:59:39;20.40;;;8.52;;
71730;SDS011;65964;43.496;3.710;2023-01-08T09:02:05;31.75;;;14.88;;
71730;SDS011;65964;43.496;3.710;2023-01-08T09:04:32;36.65;;;15.02;;
71730;SDS011;65964;43.496;3.710;2023-01-08T09:06:58;25.70;;;10.18;;
71730;SDS011;65964;43.496;3.710;2023-01-08T09:09:24;33.13;;;13.25;;
71730;SDS011;65964;43.496;3.710;2023-01-08T09:11:51;26.70;;;9.15;;
71730;SDS011;65964;43.496;3.710;2023-01-08T09:14:17;23.23;;;7.75;;
71730;SDS011;65964;43.496;3.710;2023-01-08T09:16:43;26.52;;;7.70;;
71730;SDS011;65964;43.496;3.710;2023-01-08T09:19:10;25.02;;;8.02;;
71730;SDS011;65964;43.496;3.710;2023-01-08T09:21:36;22.13;;;7.93;;
71730;SDS011;65964;43.496;3.710;2023-01-08T09:24:02;24.40;;;8.52;;
71730;SDS011;65964;43.496;3.710;2023-01-08T09:26:28;24.17;;;8.43;;
71730;SDS011;65964;43.496;3.710;2023-01-08T09:28:57;21.48;;;9.00;;
71730;SDS011;65964;43.496;3.710;2023-01-08T09:31:24;31.25;;;8.15;;
71730;SDS011;65964;43.496;3.710;2023-01-08T09:33:50;22.23;;;7.28;;
71730;SDS011;65964;43.496;3.710;2023-01-08T09:36:16;26.35;;;7.25;;
71730;SDS011;65964;43.496;3.710;2023-01-08T09:38:42;20.85;;;7.55;;
71730;SDS011;65964;43.496;3.710;2023-01-08T09:41:10;26.27;;;8.00;;
71730;SDS011;65964;43.496;3.710;2023-01-08T09:43:37;22.38;;;8.23;;
71730;SDS011;65964;43.496;3.710;2023-01-08T09:46:05;24.30;;;8.57;;
71730;SDS011;65964;43.496;3.710;2023-01-08T09:48:33;22.15;;;8.15;;
71730;SDS011;65964;43.496;3.710;2023-01-08T09:51:00;19.70;;;7.13;;
71730;SDS011;65964;43.496;3.710;2023-01-08T09:53:26;22.23;;;7.38;;
71730;SDS011;65964;43.496;3.710;2023-01-08T09:56:00;26.40;;;7.18;;
71730;SDS011;65964;43.496;3.710;2023-01-08T09:58:32;30.00;;;9.60;;
71730;SDS011;65964;43.496;3.710;2023-01-08T10:01:00;32.38;;;12.13;;
71730;SDS011;65964;43.496;3.710;2023-01-08T10:03:28;24.40;;;9.10;;
71730;SDS011;65964;43.496;3.710;2023-01-08T10:05:54;31.13;;;10.43;;
71730;SDS011;65964;43.496;3.710;2023-01-08T10:08:21;22.05;;;10.13;;
71730;SDS011;65964;43.496;3.710;2023-01-08T10:10:48;21.10;;;7.97;;
71730;SDS011;65964;43.496;3.710;2023-01-08T10:13:14;18.17;;;6.35;;
71730;SDS011;65964;43.496;3.710;2023-01-08T10:15:40;24.05;;;6.72;;
71730;SDS011;65964;43.496;3.710;2023-01-08T10:18:11;26.52;;;7.47;;
71730;SDS011;65964;43.496;3.710;2023-01-08T10:20:37;25.85;;;7.45;;
71730;SDS011;65964;43.496;3.710;2023-01-08T10:23:13;28.58;;;9.07;;
71730;SDS011;65964;43.496;3.710;2023-01-08T10:25:53;22.25;;;7.65;;
71730;SDS011;65964;43.496;3.710;2023-01-08T10:28:28;31.55;;;8.57;;
71730;SDS011;65964;43.496;3.710;2023-01-08T10:30:59;26.13;;;8.25;;
71730;SDS011;65964;43.496;3.710;2023-01-08T10:33:29;32.22;;;8.10;;
71730;SDS011;65964;43.496;3.710;2023-01-08T10:35:57;22.85;;;7.63;;
71730;SDS011;65964;43.496;3.710;2023-01-08T10:41:23;29.77;;;6.93;;
71730;SDS011;65964;43.496;3.710;2023-01-08T10:43:53;32.78;;;8.48;;
71730;SDS011;65964;43.496;3.710;2023-01-08T10:49:01;24.27;;;8.63;;
71730;SDS011;65964;43.496;3.710;2023-01-08T10:51:29;25.65;;;7.03;;
71730;SDS011;65964;43.496;3.710;2023-01-08T10:54:12;35.65;;;8.15;;
71730;SDS011;65964;43.496;3.710;2023-01-08T10:56:40;27.77;;;7.05;;
71730;SDS011;65964;43.496;3.710;2023-01-08T10:59:16;32.22;;;8.35;;
71730;SDS011;65964;43.496;3.710;2023-01-08T11:01:45;19.75;;;7.05;;
71730;SDS011;65964;43.496;3.710;2023-01-08T11:04:15;32.38;;;9.27;;
71730;SDS011;65964;43.496;3.710;2023-01-08T11:06:45;17.73;;;6.90;;
71730;SDS011;65964;43.496;3.710;2023-01-08T11:09:22;16.27;;;7.28;;
71730;SDS011;65964;43.496;3.710;2023-01-08T11:11:49;21.33;;;7.80;;
71730;SDS011;65964;43.496;3.710;2023-01-08T11:14:20;14.20;;;6.57;;
71730;SDS011;65964;43.496;3.710;2023-01-08T11:16:47;22.15;;;7.03;;
71730;SDS011;65964;43.496;3.710;2023-01-08T11:19:14;21.42;;;6.30;;
71730;SDS011;65964;43.496;3.710;2023-01-08T11:21:41;16.05;;;6.72;;
71730;SDS011;65964;43.496;3.710;2023-01-08T11:27:06;22.17;;;8.25;;
71730;SDS011;65964;43.496;3.710;2023-01-08T11:37:04;32.45;;;14.55;;
71730;SDS011;65964;43.496;3.710;2023-01-08T11:39:33;48.70;;;22.75;;
71730;SDS011;65964;43.496;3.710;2023-01-08T11:44:36;57.17;;;26.58;;
71730;SDS011;65964;43.496;3.710;2023-01-08T12:00:10;23.27;;;8.10;;
71730;SDS011;65964;43.496;3.710;2023-01-08T12:08:11;22.08;;;7.28;;
71730;SDS011;65964;43.496;3.710;2023-01-08T12:21:13;24.95;;;7.40;;
71730;SDS011;65964;43.496;3.710;2023-01-08T12:26:21;16.35;;;7.57;;
71730;SDS011;65964;43.496;3.710;2023-01-08T12:34:24;22.80;;;8.20;;
71730;SDS011;65964;43.496;3.710;2023-01-08T12:36:55;18.98;;;7.45;;
71730;SDS011;65964;43.496;3.710;2023-01-08T12:39:28;22.17;;;7.68;;
71730;SDS011;65964;43.496;3.710;2023-01-08T12:42:05;18.98;;;6.80;;
71730;SDS011;65964;43.496;3.710;2023-01-08T12:44:32;16.13;;;5.88;;
71730;SDS011;65964;43.496;3.710;2023-01-08T12:46:59;19.92;;;6.38;;
71730;SDS011;65964;43.496;3.710;2023-01-08T12:49:29;22.15;;;6.63;;
71730;SDS011;65964;43.496;3.710;2023-01-08T12:52:01;17.70;;;6.93;;
71730;SDS011;65964;43.496;3.710;2023-01-08T13:02:40;18.55;;;7.50;;
71730;SDS011;65964;43.496;3.710;2023-01-08T13:05:29;18.42;;;7.68;;
71730;SDS011;65964;43.496;3.710;2023-01-08T13:08:02;17.58;;;7.47;;
71730;SDS011;65964;43.496;3.710;2023-01-08T13:12:56;17.48;;;7.38;;
71730;SDS011;65964;43.496;3.710;2023-01-08T13:15:26;16.67;;;7.50;;
71730;SDS011;65964;43.496;3.710;2023-01-08T13:17:53;17.17;;;8.20;;
71730;SDS011;65964;43.496;3.710;2023-01-08T13:20:23;18.40;;;8.15;;
71730;SDS011;65964;43.496;3.710;2023-01-08T13:22:53;16.38;;;6.75;;
71730;SDS011;65964;43.496;3.710;2023-01-08T13:27:46;13.25;;;5.53;;
71730;SDS011;65964;43.496;3.710;2023-01-08T13:32:57;19.65;;;6.57;;
71730;SDS011;65964;43.496;3.710;2023-01-08T13:35:24;17.60;;;6.78;;
71730;SDS011;65964;43.496;3.710;2023-01-08T13:38:12;16.00;;;6.22;;
71730;SDS011;65964;43.496;3.710;2023-01-08T13:48:23;17.70;;;7.32;;
71730;SDS011;65964;43.496;3.710;2023-01-08T13:50:50;17.77;;;6.75;;
71730;SDS011;65964;43.496;3.710;2023-01-08T13:53:16;18.27;;;6.55;;
71730;SDS011;65964;43.496;3.710;2023-01-08T13:55:52;16.73;;;6.60;;
71730;SDS011;65964;43.496;3.710;2023-01-08T13:58:26;17.13;;;8.32;;
71730;SDS011;65964;43.496;3.710;2023-01-08T14:00:53;21.98;;;7.82;;
71730;SDS011;65964;43.496;3.710;2023-01-08T14:05:49;19.23;;;7.38;;
71730;SDS011;65964;43.496;3.710;2023-01-08T14:08:25;28.60;;;11.10;;
71730;SDS011;65964;43.496;3.710;2023-01-08T14:10:51;20.73;;;7.18;;
71730;SDS011;65964;43.496;3.710;2023-01-08T14:13:20;18.25;;;7.78;;
71730;SDS011;65964;43.496;3.710;2023-01-08T14:15:47;25.77;;;7.70;;
71730;SDS011;65964;43.496;3.710;2023-01-08T14:18:13;22.85;;;10.00;;
71730;SDS011;65964;43.496;3.710;2023-01-08T14:20:40;26.83;;;9.20;;
71730;SDS011;65964;43.496;3.710;2023-01-08T14:23:18;22.95;;;9.57;;
71730;SDS011;65964;43.496;3.710;2023-01-08T14:25:46;20.23;;;8.48;;
71730;SDS011;65964;43.496;3.710;2023-01-08T14:28:17;16.33;;;6.88;;
71730;SDS011;65964;43.496;3.710;2023-01-08T14:30:50;18.80;;;7.63;;
71730;SDS011;65964;43.496;3.710;2023-01-08T14:33:18;20.13;;;8.95;;
71730;SDS011;65964;43.496;3.710;2023-01-08T14:35:45;22.98;;;9.48;;
71730;SDS011;65964;43.496;3.710;2023-01-08T14:38:12;21.98;;;9.25;;
71730;SDS011;65964;43.496;3.710;2023-01-08T14:40:42;23.45;;;9.23;;
71730;SDS011;65964;43.496;3.710;2023-01-08T14:43:13;20.05;;;8.07;;
71730;SDS011;65964;43.496;3.710;2023-01-08T14:45:43;22.48;;;7.80;;
71730;SDS011;65964;43.496;3.710;2023-01-08T14:50:38;27.58;;;10.00;;
71730;SDS011;65964;43.496;3.710;2023-01-08T14:53:18;19.77;;;7.78;;
71730;SDS011;65964;43.496;3.710;2023-01-08T14:55:45;19.60;;;7.90;;
71730;SDS011;65964;43.496;3.710;2023-01-08T14:58:14;17.63;;;7.70;;
71730;SDS011;65964;43.496;3.710;2023-01-08T15:00:41;22.80;;;7.38;;
71730;SDS011;65964;43.496;3.710;2023-01-08T15:05:52;26.83;;;11.50;;
71730;SDS011;65964;43.496;3.710;2023-01-08T15:10:46;20.60;;;7.88;;
71730;SDS011;65964;43.496;3.710;2023-01-08T15:13:22;20.27;;;7.40;;
71730;SDS011;65964;43.496;3.710;2023-01-08T15:15:52;21.70;;;6.85;;
71730;SDS011;65964;43.496;3.710;2023-01-08T15:18:19;19.92;;;7.65;;
71730;SDS011;65964;43.496;3.710;2023-01-08T15:20:45;23.10;;;7.70;;
71730;SDS011;65964;43.496;3.710;2023-01-08T15:23:45;20.08;;;7.60;;
71730;SDS011;65964;43.496;3.710;2023-01-08T15:26:07;19.60;;;9.10;;
71730;SDS011;65964;43.496;3.710;2023-01-08T15:28:33;23.73;;;8.68;;
71730;SDS011;65964;43.496;3.710;2023-01-08T15:30:59;21.48;;;7.38;;
71730;SDS011;65964;43.496;3.710;2023-01-08T15:33:25;19.98;;;6.30;;
71730;SDS011;65964;43.496;3.710;2023-01-08T15:35:53;21.77;;;6.90;;
71730;SDS011;65964;43.496;3.710;2023-01-08T15:38:19;18.85;;;6.53;;
71730;SDS011;65964;43.496;3.710;2023-01-08T15:40:47;18.23;;;6.20;;
71730;SDS011;65964;43.496;3.710;2023-01-08T15:43:15;22.52;;;7.07;;
71730;SDS011;65964;43.496;3.710;2023-01-08T15:45:41;22.33;;;6.75;;
71730;SDS011;65964;43.496;3.710;2023-01-08T15:48:08;20.50;;;6.57;;
71730;SDS011;65964;43.496;3.710;2023-01-08T15:50:35;22.02;;;6.35;;
71730;SDS011;65964;43.496;3.710;2023-01-08T15:53:06;22.63;;;9.35;;
71730;SDS011;65964;43.496;3.710;2023-01-08T15:55:34;22.80;;;9.60;;
71730;SDS011;65964;43.496;3.710;2023-01-08T15:58:01;29.83;;;8.93;;
71730;SDS011;65964;43.496;3.710;2023-01-08T16:00:28;19.67;;;8.13;;
71730;SDS011;65964;43.496;3.710;2023-01-08T16:02:54;20.33;;;8.15;;
71730;SDS011;65964;43.496;3.710;2023-01-08T16:05:23;21.08;;;7.75;;
71730;SDS011;65964;43.496;3.710;2023-01-08T16:07:50;28.02;;;10.70;;
71730;SDS011;65964;43.496;3.710;2023-01-08T16:10:16;26.95;;;12.98;;
71730;SDS011;65964;43.496;3.710;2023-01-08T16:12:42;26.58;;;12.93;;
71730;SDS011;65964;43.496;3.710;2023-01-08T16:15:09;29.15;;;12.98;;
71730;SDS011;65964;43.496;3.710;2023-01-08T16:17:35;36.30;;;12.82;;
71730;SDS011;65964;43.496;3.710;2023-01-08T16:20:02;23.50;;;10.30;;
71730;SDS011;65964;43.496;3.710;2023-01-08T16:22:28;23.23;;;9.45;;
71730;SDS011;65964;43.496;3.710;2023-01-08T16:24:54;19.63;;;8.48;;